Time;durP1;ratioP1;P1;durP2;ratioP2;P2;SDS_P1;SDS_P2;PMS_P1;PMS_P2;Temp;Humidity;BMP_temperature;BMP_pressure;BME280_temperature;BME280_humidity;BME280_pressure;Samples;Min_cycle;Max_cycle;Signal;HPM_P1;HPM_P2
2024/01/29 00:00:56;;;;;;;6.27;4.23;;;3.00;99.90;;;-141.84;57.74;18462.56;4994433;28;20405;-63
2024/01/29 00:03:24;;;;;;;6.13;3.90;;;2.90;99.90;;;-141.84;57.63;18454.44;4987712;28;20252;-64
2024/01/29 00:05:53;;;;;;;5.40;3.70;;;3.00;99.90;;;-141.84;57.12;18460.53;4979626;28;20203;-68
2024/01/29 00:08:22;;;;;;;4.57;3.40;;;3.00;99.90;;;-141.84;57.30;18452.41;4978038;28;20616;-63
2024/01/29 00:10:50;;;;;;;4.60;3.80;;;3.00;99.90;;;-141.84;57.25;18505.22;4988319;28;20260;-64
2024/01/29 00:13:20;;;;;;;5.37;3.50;;;3.10;99.90;;;-141.84;56.23;18458.50;5001536;28;20262;-64
2024/01/29 00:15:49;;;;;;;4.87;3.47;;;3.10;99.90;;;-141.84;55.60;18450.38;4990642;28;20273;-64
2024/01/29 00:18:17;;;;;;;6.20;3.70;;;3.20;99.90;;;-141.84;56.88;18470.69;4989884;28;20227;-65
2024/01/29 00:20:45;;;;;;;5.50;3.73;;;3.20;99.90;;;-141.84;56.62;18448.34;4988488;28;20208;-64
2024/01/29 00:23:14;;;;;;;5.23;3.50;;;3.10;99.90;;;-141.84;57.53;18464.59;4981348;28;20216;-65
2024/01/29 00:25:45;;;;;;;4.73;3.53;;;3.10;99.90;;;-141.84;57.78;18482.88;4984343;28;20583;-63
2024/01/29 00:28:13;;;;;;;5.27;3.60;;;3.00;99.90;;;-141.84;57.68;18478.81;4983430;28;20286;-65
2024/01/29 00:30:41;;;;;;;4.30;3.37;;;3.00;99.90;;;-141.84;56.55;18462.56;4983260;28;20316;-66
2024/01/29 00:33:10;;;;;;;5.20;3.77;;;3.00;99.90;;;-141.84;56.40;18468.66;4984033;28;20796;-64
2024/01/29 00:35:39;;;;;;;4.63;3.70;;;3.00;99.90;;;-141.84;57.15;18464.59;4984577;28;20198;-64
2024/01/29 00:38:07;;;;;;;5.40;3.50;;;3.00;99.90;;;-141.84;57.34;18464.59;4983835;28;20264;-65
2024/01/29 00:40:37;;;;;;;5.63;3.63;;;3.00;99.90;;;-141.84;58.23;18458.50;4983338;28;20251;-63
2024/01/29 00:43:06;;;;;;;4.83;3.60;;;2.90;99.90;;;-141.84;58.14;18440.22;4976153;28;20255;-64
2024/01/29 00:45:35;;;;;;;5.37;3.43;;;2.90;99.90;;;-141.84;58.23;18501.16;4985743;28;20321;-64
2024/01/29 00:48:04;;;;;;;5.07;3.53;;;2.90;99.90;;;-141.84;58.68;18476.78;4981960;28;20228;-64
2024/01/29 00:50:32;;;;;;;6.47;4.00;;;2.80;99.90;;;-141.84;57.57;18428.03;4984130;28;20653;-64
2024/01/29 00:53:00;;;;;;;5.47;3.53;;;2.80;99.90;;;-141.84;58.23;18460.53;4983400;28;20308;-65
2024/01/29 00:55:28;;;;;;;4.93;3.53;;;2.80;99.90;;;-141.84;59.81;18440.22;4963278;28;20265;-65
2024/01/29 00:57:57;;;;;;;4.63;3.20;;;2.70;99.90;;;-141.84;60.82;18440.22;4974270;28;20220;-65
2024/01/29 01:00:26;;;;;;;4.67;3.33;;;2.60;99.90;;;-141.84;60.70;18476.78;4988576;28;20243;-64
2024/01/29 01:02:55;;;;;;;4.57;3.63;;;2.50;99.90;;;-141.84;61.50;18411.75;4983054;28;20201;-64
2024/01/29 01:05:23;;;;;;;4.83;3.90;;;2.40;99.90;;;-141.84;62.17;18428.03;4984048;28;20567;-63
2024/01/29 01:07:52;;;;;;;5.30;3.70;;;2.40;99.90;;;-141.84;62.22;18438.19;4983162;28;20273;-64
2024/01/29 01:10:20;;;;;;;5.70;4.07;;;2.30;99.90;;;-141.84;61.86;18462.56;4986225;28;20228;-64
2024/01/29 01:12:49;;;;;;;5.83;3.67;;;2.30;99.90;;;-141.84;61.62;18430.06;4983717;28;20562;-64
2024/01/29 01:15:17;;;;;;;5.43;4.07;;;2.30;99.90;;;-141.84;62.13;18423.94;4981127;28;20562;-64
2024/01/29 01:17:47;;;;;;;5.37;3.73;;;2.30;99.90;;;-141.84;61.94;18419.88;4973262;28;20271;-65
2024/01/29 01:20:15;;;;;;;4.00;3.23;;;2.30;99.90;;;-141.84;62.19;18419.88;4987476;28;20213;-64
2024/01/29 01:22:44;;;;;;;5.00;3.70;;;2.30;99.90;;;-141.84;63.21;18428.03;4982412;28;20294;-65
2024/01/29 01:25:12;;;;;;;5.20;3.80;;;2.20;99.90;;;-141.84;63.44;18425.97;4977261;28;20856;-63
2024/01/29 01:27:40;;;;;;;5.83;4.10;;;2.20;99.90;;;-141.84;63.64;18440.22;4973753;28;20233;-64
2024/01/29 01:30:09;;;;;;;5.23;3.70;;;2.10;99.90;;;-141.84;63.41;18448.34;4976499;28;20227;-63
2024/01/29 01:32:38;;;;;;;5.30;3.40;;;2.00;99.90;;;-141.84;63.50;18464.59;4985979;28;20213;-64
2024/01/29 01:35:08;;;;;;;4.57;3.40;;;2.00;99.90;;;-141.84;63.12;18432.09;4985168;28;20224;-64
2024/01/29 01:37:36;;;;;;;5.67;3.80;;;2.10;99.90;;;-141.84;63.02;18421.91;4982286;28;20226;-64
2024/01/29 01:40:06;;;;;;;5.77;3.57;;;2.10;99.90;;;-141.84;63.33;18415.81;4987463;28;20220;-65
2024/01/29 01:42:34;;;;;;;5.33;3.50;;;2.10;99.90;;;-141.84;63.61;18401.59;4983429;28;20256;-64
2024/01/29 01:45:03;;;;;;;4.90;3.33;;;2.10;99.90;;;-141.84;64.01;18448.34;4982710;28;20635;-63
2024/01/29 01:47:31;;;;;;;5.00;3.70;;;2.00;99.90;;;-141.84;64.32;18436.16;4982568;28;20271;-63
2024/01/29 01:50:00;;;;;;;5.57;3.80;;;2.00;99.90;;;-141.84;63.96;18428.03;4980756;28;20714;-65
2024/01/29 01:52:32;;;;;;;5.07;3.40;;;2.00;99.90;;;-141.84;64.32;18415.81;4979618;28;20227;-65
2024/01/29 01:55:01;;;;;;;5.97;3.87;;;2.00;99.90;;;-141.84;64.78;18421.91;4980310;28;20706;-64
2024/01/29 01:57:30;;;;;;;5.57;3.70;;;1.90;99.90;;;-141.84;65.02;18428.03;4980612;28;20294;-65
2024/01/29 01:59:59;;;;;;;6.93;3.43;;;1.90;99.90;;;-141.84;63.89;18417.84;4983448;28;20196;-63
2024/01/29 02:02:29;;;;;;;4.47;3.63;;;1.90;99.90;;;-141.84;63.68;18411.75;4982726;28;20227;-63
2024/01/29 02:04:57;;;;;;;5.23;3.30;;;1.90;99.90;;;-141.84;63.89;18436.16;4979884;28;20232;-63
2024/01/29 02:07:26;;;;;;;4.80;3.50;;;1.90;99.90;;;-141.84;63.91;18432.09;4979315;28;20332;-64
2024/01/29 02:09:56;;;;;;;4.50;3.33;;;2.00;99.90;;;-141.84;64.38;18450.38;4976961;28;20224;-64
2024/01/29 02:12:25;;;;;;;5.00;3.10;;;2.00;99.90;;;-141.84;64.24;18428.03;4973525;28;20239;-64
2024/01/29 02:14:53;;;;;;;4.47;3.10;;;2.00;99.90;;;-141.84;64.54;18395.50;4971395;28;20582;-63
2024/01/29 02:17:21;;;;;;;4.43;3.20;;;2.00;99.90;;;-141.84;64.55;18442.25;4979364;28;20899;-65
2024/01/29 02:19:50;;;;;;;5.93;3.37;;;2.00;99.90;;;-141.84;63.44;18413.78;4974164;28;20229;-64
2024/01/29 02:22:18;;;;;;;4.80;3.63;;;2.00;99.90;;;-141.84;63.38;18405.66;4976936;28;20220;-64
2024/01/29 02:24:48;;;;;;;5.03;3.40;;;2.10;99.90;;;-141.84;63.28;18425.97;4979315;28;20235;-63
2024/01/29 02:27:16;;;;;;;7.23;3.30;;;2.10;99.90;;;-141.84;63.12;18411.75;4980875;28;20227;-65
2024/01/29 02:29:45;;;;;;;5.33;3.30;;;2.10;99.90;;;-141.84;63.26;18436.16;4981653;28;20290;-65
2024/01/29 02:32:13;;;;;;;6.60;3.00;;;2.20;99.90;;;-141.84;63.27;18438.19;4980630;28;20283;-64
2024/01/29 02:34:42;;;;;;;5.00;3.20;;;2.20;99.90;;;-141.84;63.22;18448.34;4978190;28;20287;-65
2024/01/29 02:37:10;;;;;;;5.23;3.20;;;2.20;99.90;;;-141.84;64.69;18432.09;4977662;28;20223;-64
2024/01/29 02:39:38;;;;;;;4.23;3.20;;;2.20;99.90;;;-141.84;63.75;18415.81;4975097;28;20253;-64
2024/01/29 02:42:08;;;;;;;5.13;3.20;;;2.20;99.90;;;-141.84;64.76;18440.22;4976223;28;20290;-64
2024/01/29 02:44:36;;;;;;;4.40;2.97;;;2.20;99.90;;;-141.84;65.09;18434.13;4979432;28;20284;-64
2024/01/29 02:47:05;;;;;;;4.13;3.23;;;2.20;99.90;;;-141.84;64.11;18421.91;4978212;28;20231;-64
2024/01/29 02:49:34;;;;;;;6.63;3.23;;;2.20;99.90;;;-141.84;63.54;18436.16;4977510;28;20773;-64
2024/01/29 02:52:04;;;;;;;4.63;3.13;;;2.20;99.90;;;-141.84;63.14;18409.72;4973270;28;20227;-65
2024/01/29 02:54:32;;;;;;;4.83;3.43;;;2.30;99.90;;;-141.84;62.59;18462.56;4971032;28;20583;-65
2024/01/29 02:57:01;;;;;;;5.07;3.47;;;2.30;99.90;;;-141.84;63.74;18428.03;4978383;28;20239;-65
2024/01/29 02:59:30;;;;;;;4.03;3.20;;;2.30;99.90;;;-141.84;64.60;18428.03;4972634;28;20255;-64
2024/01/29 03:01:59;;;;;;;6.37;3.20;;;2.30;99.90;;;-141.84;65.39;18428.03;4980111;28;20252;-64
2024/01/29 03:04:28;;;;;;;5.27;3.40;;;2.20;99.90;;;-141.84;64.97;18430.06;4973804;28;20228;-64
2024/01/29 03:06:56;;;;;;;5.77;2.90;;;2.10;99.90;;;-141.84;65.06;18434.13;4979566;28;20304;-65
2024/01/29 03:09:25;;;;;;;4.43;3.10;;;2.10;99.90;;;-141.84;65.42;18419.88;4980965;28;20239;-64
2024/01/29 03:11:53;;;;;;;3.43;2.87;;;2.10;99.90;;;-141.84;65.04;18436.16;4981140;28;20209;-65
2024/01/29 03:14:21;;;;;;;3.60;3.07;;;2.00;99.90;;;-141.84;65.34;18421.91;4982006;28;20272;-64
2024/01/29 03:16:52;;;;;;;3.90;3.10;;;2.10;99.90;;;-141.84;66.07;18434.13;4984353;28;20250;-64
2024/01/29 03:19:21;;;;;;;4.63;2.80;;;2.10;99.90;;;-141.84;65.70;18444.28;4981123;28;20283;-65
2024/01/29 03:21:50;;;;;;;3.90;2.90;;;2.00;99.90;;;-141.84;66.00;18430.06;4970289;28;20233;-63
2024/01/29 03:24:18;;;;;;;5.93;3.20;;;2.00;99.90;;;-141.84;65.87;18472.72;4977994;28;20234;-64
2024/01/29 03:26:46;;;;;;;6.17;3.60;;;2.00;99.90;;;-141.84;65.71;18413.78;4978286;28;20684;-66
2024/01/29 03:29:14;;;;;;;5.83;3.50;;;2.00;99.90;;;-141.84;65.55;18428.03;4984104;28;20452;-65
2024/01/29 03:31:43;;;;;;;6.53;3.90;;;2.00;99.90;;;-141.84;65.14;18401.59;4980283;28;20269;-65
2024/01/29 03:34:12;;;;;;;6.20;3.63;;;2.00;99.90;;;-141.84;64.92;18448.34;4980375;28;20247;-65
2024/01/29 03:36:41;;;;;;;4.90;3.30;;;2.10;99.90;;;-141.84;64.88;18436.16;4981477;28;20266;-64
2024/01/29 03:39:09;;;;;;;5.30;3.40;;;2.10;99.90;;;-141.84;64.48;18411.75;4979834;28;20234;-64
2024/01/29 03:41:37;;;;;;;5.10;3.30;;;2.10;99.90;;;-141.84;64.03;18434.13;4980797;28;20453;-64
2024/01/29 03:44:05;;;;;;;4.63;3.30;;;2.20;99.90;;;-141.84;64.29;18442.25;4976609;28;20248;-64
2024/01/29 03:46:34;;;;;;;7.90;3.30;;;2.20;99.90;;;-141.84;64.80;18446.31;4980592;28;20271;-65
2024/01/29 03:49:02;;;;;;;4.00;2.80;;;2.20;99.90;;;-141.84;64.22;18417.84;4980721;28;20224;-64
2024/01/29 03:51:32;;;;;;;4.17;3.10;;;2.20;99.90;;;-141.84;64.48;18448.34;4980665;28;20233;-64
2024/01/29 03:54:00;;;;;;;5.40;3.20;;;2.20;99.90;;;-141.84;64.31;18432.09;4981179;28;20288;-65
2024/01/29 03:56:28;;;;;;;4.37;2.80;;;2.20;99.90;;;-141.84;64.25;18415.81;4984028;28;20196;-64
2024/01/29 03:58:56;;;;;;;3.63;2.70;;;2.30;99.90;;;-141.84;64.64;18450.38;4982108;28;20294;-65
2024/01/29 04:01:29;;;;;;;3.80;2.93;;;2.30;99.90;;;-141.84;65.19;18444.28;4990852;28;20219;-64
2024/01/29 04:03:57;;;;;;;4.43;3.00;;;2.30;99.90;;;-141.84;65.37;18436.16;4989925;28;20224;-65
2024/01/29 04:06:26;;;;;;;4.03;2.93;;;2.30;99.90;;;-141.84;64.12;18436.16;4984747;28;20253;-64
2024/01/29 04:08:56;;;;;;;4.30;2.80;;;2.30;99.90;;;-141.84;63.87;18425.97;4983692;28;20275;-64
2024/01/29 04:11:25;;;;;;;3.83;2.90;;;2.40;99.90;;;-141.84;64.27;18403.63;4987090;28;20243;-65
2024/01/29 04:13:54;;;;;;;6.83;2.93;;;2.40;99.90;;;-141.84;62.79;18456.47;4987874;28;20813;-65
2024/01/29 04:16:22;;;;;;;6.43;2.80;;;2.40;99.90;;;-141.84;62.63;18423.94;4986037;28;20225;-65
2024/01/29 04:18:50;;;;;;;5.47;2.73;;;2.50;99.90;;;-141.84;62.96;18438.19;4983649;28;20223;-65
2024/01/29 04:21:19;;;;;;;4.73;2.90;;;2.50;99.90;;;-141.84;63.85;18452.41;4985008;28;20309;-65
2024/01/29 04:23:47;;;;;;;4.73;2.53;;;2.50;99.90;;;-141.84;63.73;18432.09;4982717;28;20284;-64
2024/01/29 04:26:17;;;;;;;7.70;3.00;;;2.50;99.90;;;-141.84;63.46;18411.75;4982043;28;20580;-65
2024/01/29 04:28:46;;;;;;;4.67;3.17;;;2.50;99.90;;;-141.84;63.26;18444.28;4987532;28;20231;-64
2024/01/29 04:31:15;;;;;;;4.90;2.80;;;2.50;99.90;;;-141.84;63.05;18425.97;4974002;28;20723;-64
2024/01/29 04:33:44;;;;;;;7.30;2.70;;;2.50;99.90;;;-141.84;61.59;18417.84;4980823;28;20303;-64
2024/01/29 04:36:15;;;;;;;5.37;3.53;;;2.60;99.90;;;-141.84;61.01;18440.22;4985850;28;20306;-63
2024/01/29 04:38:44;;;;;;;5.47;3.30;;;2.70;99.90;;;-141.84;61.85;18436.16;4980898;28;20266;-64
2024/01/29 04:41:19;;;;;;;4.90;2.90;;;2.60;99.90;;;-141.84;62.37;18415.81;4985129;28;20616;-66
2024/01/29 04:43:47;;;;;;;3.37;3.07;;;2.60;99.90;;;-141.84;62.85;18448.34;4986474;28;20661;-63
2024/01/29 04:46:16;;;;;;;6.10;2.80;;;2.60;99.90;;;-141.84;62.30;18430.06;4993884;28;20217;-64
2024/01/29 04:48:44;;;;;;;5.13;2.80;;;2.60;99.90;;;-141.84;61.92;18438.19;4984518;28;20232;-65
2024/01/29 04:51:13;;;;;;;5.47;2.90;;;2.60;99.90;;;-141.84;62.11;18432.09;4975056;28;20251;-64
2024/01/29 04:53:41;;;;;;;4.27;3.43;;;2.60;99.90;;;-141.84;62.30;18464.59;4989175;28;20204;-67
2024/01/29 04:56:10;;;;;;;4.97;2.90;;;2.50;99.90;;;-141.84;62.54;18428.03;4982364;28;20221;-65
2024/01/29 04:58:40;;;;;;;5.37;3.60;;;2.50;99.90;;;-141.84;62.70;18452.41;4984970;28;20255;-66
2024/01/29 05:01:09;;;;;;;5.37;3.33;;;2.40;99.90;;;-141.84;63.17;18407.69;4986149;28;20250;-64
2024/01/29 05:03:38;;;;;;;3.97;2.90;;;2.60;99.90;;;-141.84;63.48;18417.84;4980140;28;20753;-64
2024/01/29 05:06:07;;;;;;;7.87;4.00;;;2.40;99.90;;;-141.84;63.67;18411.75;4983373;28;20730;-64
2024/01/29 05:08:35;;;;;;;6.10;3.90;;;2.30;99.90;;;-141.84;63.66;18411.75;4983651;28;20550;-65
2024/01/29 05:11:04;;;;;;;5.50;3.53;;;2.30;99.90;;;-141.84;63.62;18458.50;4984443;28;20722;-65
2024/01/29 05:13:32;;;;;;;5.70;3.60;;;2.20;99.90;;;-141.84;63.45;18432.09;4983957;28;20585;-65
2024/01/29 05:16:02;;;;;;;6.77;4.00;;;2.20;99.90;;;-141.84;63.78;18383.31;4984015;28;20231;-64
2024/01/29 05:18:34;;;;;;;3.70;3.20;;;2.20;99.90;;;-141.84;63.54;18430.06;4974194;28;20236;-65
2024/01/29 05:21:03;;;;;;;4.47;2.87;;;2.20;99.90;;;-141.84;63.38;18448.34;4982407;28;20321;-64
2024/01/29 05:23:31;;;;;;;5.10;3.40;;;2.20;99.90;;;-141.84;62.32;18421.91;4982571;28;20194;-64
2024/01/29 05:25:59;;;;;;;5.00;3.30;;;2.30;99.90;;;-141.84;62.61;18432.09;4988988;28;20231;-63
2024/01/29 05:28:27;;;;;;;4.57;2.93;;;2.30;99.90;;;-141.84;62.75;18411.75;4986189;28;20323;-65
2024/01/29 05:30:56;;;;;;;4.73;3.00;;;2.30;99.90;;;-141.84;62.58;18413.78;4982129;28;20350;-64
2024/01/29 05:33:26;;;;;;;4.53;3.27;;;2.30;99.90;;;-141.84;62.35;18415.81;4980097;28;20235;-64
2024/01/29 05:35:55;;;;;;;4.57;2.30;;;2.30;99.90;;;-141.84;59.53;18458.50;4980649;28;20290;-64
2024/01/29 05:38:24;;;;;;;3.93;2.63;;;2.40;99.90;;;-141.84;59.61;18456.47;4987158;28;20207;-65
2024/01/29 05:40:53;;;;;;;3.80;2.83;;;2.50;99.90;;;-141.84;59.55;18446.31;4982730;28;20322;-67
2024/01/29 05:43:22;;;;;;;3.70;2.50;;;2.50;99.90;;;-141.84;59.52;18430.06;4981030;28;20247;-64
2024/01/29 05:45:50;;;;;;;5.00;2.93;;;2.50;99.90;;;-141.84;58.59;18448.34;4980364;28;20262;-64
2024/01/29 05:48:18;;;;;;;2.53;2.20;;;2.60;99.90;;;-141.84;57.26;18458.50;4980636;28;20286;-63
2024/01/29 05:50:48;;;;;;;4.03;2.73;;;2.70;99.90;;;-141.84;55.55;18501.16;4980328;28;20222;-63
2024/01/29 05:53:20;;;;;;;3.23;2.20;;;2.90;99.90;;;-141.84;55.28;18474.75;4970829;28;21450;-64
2024/01/29 05:55:48;;;;;;;4.00;2.57;;;3.00;99.90;;;-141.84;55.07;18468.66;4972281;28;20234;-65
2024/01/29 05:58:17;;;;;;;3.83;2.40;;;3.10;99.90;;;-141.84;55.21;18460.53;4980924;28;20308;-65
2024/01/29 06:00:45;;;;;;;4.37;2.73;;;3.20;99.90;;;-141.84;53.91;18515.38;4983215;28;20304;-65
2024/01/29 06:03:14;;;;;;;2.87;2.30;;;3.30;99.90;;;-141.84;54.07;18497.09;4987454;28;20648;-65
2024/01/29 06:05:42;;;;;;;4.83;2.80;;;3.40;99.90;;;-141.84;54.00;18486.94;4975955;28;20202;-57
2024/01/29 06:08:11;;;;;;;6.07;2.93;;;3.40;99.90;;;-141.84;55.19;18476.78;4978613;28;20244;-64
2024/01/29 06:10:40;;;;;;;3.63;2.47;;;3.30;99.90;;;-141.84;54.17;18460.53;4985351;28;20278;-64
2024/01/29 06:13:08;;;;;;;5.73;2.60;;;3.30;99.90;;;-141.84;53.96;18472.72;4981174;28;20536;-63
2024/01/29 06:15:36;;;;;;;3.23;2.77;;;3.40;99.90;;;-141.84;54.67;18488.97;4980454;28;20233;-65
2024/01/29 06:18:06;;;;;;;4.83;2.83;;;3.30;99.90;;;-141.84;54.42;18521.47;4979126;28;20231;-63
2024/01/29 06:20:34;;;;;;;3.23;2.67;;;3.30;99.90;;;-141.84;54.05;18491.00;4982705;28;20195;-63
2024/01/29 06:23:03;;;;;;;3.00;2.47;;;3.30;99.90;;;-141.84;nan;18476.78;4982630;28;20221;-63
2024/01/29 06:25:33;;;;;;;3.73;2.60;;;3.30;99.90;;;-141.84;54.64;18468.66;4980830;28;20656;-64
2024/01/29 06:28:01;;;;;;;2.73;2.30;;;3.20;99.90;;;-141.84;54.00;18476.78;4970854;28;20221;-63
2024/01/29 06:30:29;;;;;;;5.40;2.77;;;3.20;99.90;;;-141.84;54.68;18462.56;4976052;28;20663;-63
2024/01/29 06:32:57;;;;;;;6.07;2.83;;;3.10;99.90;;;-141.84;53.82;18509.28;4980323;28;20199;-63
2024/01/29 06:35:26;;;;;;;5.20;2.60;;;3.20;99.90;;;-141.84;54.10;18488.97;4978953;28;20200;-65
2024/01/29 06:37:54;;;;;;;4.13;2.67;;;3.20;99.90;;;-141.84;52.50;18509.28;4978056;28;20281;-63
2024/01/29 06:40:27;;;;;;;4.10;2.80;;;3.30;99.90;;;-141.84;52.73;18523.50;4978103;28;20225;-64
2024/01/29 06:42:57;;;;;;;5.60;2.60;;;3.40;99.90;;;-141.84;54.47;18488.97;4977625;28;20663;-63
2024/01/29 06:45:25;;;;;;;4.10;2.80;;;3.40;99.90;;;-141.84;54.83;18488.97;4977249;28;20232;-64
2024/01/29 06:47:54;;;;;;;4.87;2.70;;;3.30;99.90;;;-141.84;54.33;18480.84;4980276;28;20207;-63
2024/01/29 06:50:22;;;;;;;4.30;2.57;;;3.20;99.90;;;-141.84;53.84;18480.84;4980039;28;20770;-62
2024/01/29 06:52:50;;;;;;;5.13;2.60;;;3.20;99.90;;;-141.84;53.91;18456.47;4980778;28;20270;-63
2024/01/29 06:55:20;;;;;;;4.10;3.10;;;3.20;99.90;;;-141.84;54.10;18515.38;4969767;28;20226;-63
2024/01/29 06:57:48;;;;;;;5.90;3.87;;;3.20;99.90;;;-141.84;53.70;18495.06;4977985;28;20567;-64
2024/01/29 07:00:19;;;;;;;3.93;2.90;;;3.30;99.90;;;-141.84;52.94;18519.44;4985783;28;20232;-63
2024/01/29 07:02:47;;;;;;;5.23;2.50;;;3.40;99.90;;;-141.84;53.27;18462.56;4977521;28;20746;-62
2024/01/29 07:05:16;;;;;;;3.97;2.57;;;3.30;99.90;;;-141.84;52.54;18472.72;4978493;28;20278;-62
2024/01/29 07:07:44;;;;;;;3.60;2.50;;;3.40;99.90;;;-141.84;50.90;18517.41;4978826;28;20288;-64
2024/01/29 07:10:14;;;;;;;4.83;2.77;;;3.70;99.90;;;-141.84;51.28;18545.84;4976420;28;20226;-64
2024/01/29 07:12:42;;;;;;;6.10;3.37;;;3.70;99.90;;;-141.84;51.08;18529.59;4977669;28;20321;-64
2024/01/29 07:15:12;;;;;;;6.37;3.40;;;3.80;99.90;;;-141.84;52.32;18497.09;4979599;28;20246;-64
2024/01/29 07:17:42;;;;;;;4.83;3.07;;;3.70;99.90;;;-141.84;51.76;18509.28;4985064;28;20704;-63
2024/01/29 07:20:12;;;;;;;4.60;3.10;;;3.70;99.90;;;-141.84;51.74;18513.34;4980791;28;20230;-63
2024/01/29 07:22:42;;;;;;;4.83;2.90;;;3.70;99.90;;;-141.84;52.08;18527.56;4973125;28;20230;-63
2024/01/29 07:25:10;;;;;;;3.23;2.60;;;3.70;99.90;;;-141.84;50.98;18511.31;4982356;28;20708;-63
2024/01/29 07:27:39;;;;;;;5.03;2.80;;;3.90;99.90;;;-141.84;49.94;18515.38;4978023;28;20234;-65
2024/01/29 07:30:08;;;;;;;4.73;2.80;;;4.00;99.90;;;-141.84;49.64;18586.50;4980011;28;20325;-63
2024/01/29 07:32:36;;;;;;;3.70;3.10;;;4.10;99.90;;;-141.84;50.49;18527.56;4980549;28;20282;-64
2024/01/29 07:35:08;;;;;;;5.23;3.20;;;4.10;99.90;;;-141.84;49.52;18539.75;4978372;28;20226;-63
2024/01/29 07:37:38;;;;;;;3.30;2.70;;;4.10;99.90;;;-141.84;49.61;18623.06;4977545;28;20227;-64
2024/01/29 07:40:09;;;;;;;4.10;3.03;;;4.20;99.90;;;-141.84;49.68;18551.94;4984799;28;20236;-64
2024/01/29 07:42:38;;;;;;;3.97;2.80;;;4.20;99.90;;;-141.84;49.69;18549.91;4981630;28;20290;-63
2024/01/29 07:45:07;;;;;;;5.50;3.07;;;4.20;99.90;;;-141.84;49.19;18602.75;4981954;28;20655;-63
2024/01/29 07:47:35;;;;;;;3.77;2.53;;;4.20;99.90;;;-141.84;49.25;18564.13;4982339;28;20203;-63
2024/01/29 07:50:04;;;;;;;4.40;2.90;;;4.30;99.90;;;-141.84;49.60;18545.84;4985289;28;20222;-64
2024/01/29 07:52:33;;;;;;;5.07;3.47;;;4.30;99.90;;;-141.84;49.38;18551.94;4990579;28;20258;-63
2024/01/29 07:55:02;;;;;;;5.53;2.87;;;4.50;99.90;;;-141.84;48.78;18560.06;4983363;28;20266;-63
2024/01/29 07:57:30;;;;;;;4.00;3.03;;;4.50;99.90;;;-141.84;48.11;18590.56;4983733;28;20222;-64
2024/01/29 07:59:59;;;;;;;5.03;2.73;;;4.60;99.90;;;-141.84;47.07;18596.66;4983884;28;20202;-63
2024/01/29 08:02:27;;;;;;;3.93;2.50;;;4.70;99.90;;;-141.84;46.87;18600.72;4982778;28;20203;-63
2024/01/29 08:04:56;;;;;;;5.07;2.50;;;4.90;99.90;;;-141.84;46.46;18647.44;4980804;28;20227;-63
2024/01/29 08:07:26;;;;;;;4.57;2.63;;;5.00;99.90;;;-141.84;46.47;18627.13;4980622;28;20686;-63
2024/01/29 08:09:55;;;;;;;3.17;2.57;;;5.10;99.90;;;-141.84;45.63;18623.06;4975920;28;20254;-64
2024/01/29 08:12:24;;;;;;;4.40;2.87;;;5.20;99.90;;;-141.84;45.89;18616.97;4982938;28;20238;-64
2024/01/29 08:14:52;;;;;;;4.27;2.90;;;5.30;99.90;;;-141.84;46.36;18631.19;4982916;28;20212;-64
2024/01/29 08:17:20;;;;;;;4.23;2.53;;;5.30;99.90;;;-141.84;46.46;18631.19;4983641;28;20347;-63
2024/01/29 08:19:49;;;;;;;4.03;2.50;;;5.30;99.90;;;-141.84;45.31;18616.97;4982912;28;20301;-63
2024/01/29 08:22:18;;;;;;;4.70;2.80;;;5.50;99.90;;;-141.84;45.05;18692.13;4972155;28;20308;-64
2024/01/29 08:24:46;;;;;;;4.50;2.53;;;5.60;99.90;;;-141.84;44.64;18645.41;4983808;28;20223;-64
2024/01/29 08:27:17;;;;;;;3.23;2.50;;;5.70;99.90;;;-141.84;44.24;18688.06;4972669;28;20711;-63
2024/01/29 08:29:45;;;;;;;3.37;2.33;;;5.70;99.90;;;-141.84;44.06;18708.41;4974369;28;20214;-63
2024/01/29 08:32:13;;;;;;;3.93;2.50;;;5.80;99.90;;;-141.84;44.19;18673.84;4983135;28;20220;-63
2024/01/29 08:34:42;;;;;;;2.80;2.17;;;5.90;99.90;;;-141.84;43.32;18722.63;4983164;28;20227;-63
2024/01/29 08:37:10;;;;;;;4.67;2.47;;;6.20;99.90;;;-141.84;42.95;18702.28;4982816;28;20273;-63
2024/01/29 08:39:38;;;;;;;4.67;2.40;;;6.30;99.90;;;-141.84;42.78;18710.44;4983417;28;20532;-63
2024/01/29 08:42:07;;;;;;;3.20;2.30;;;6.40;99.90;;;-141.84;43.39;18738.88;4982827;28;20230;-63
2024/01/29 08:44:38;;;;;;;3.87;2.47;;;6.40;99.90;;;-141.84;42.82;18744.97;4980840;28;20206;-64
2024/01/29 08:47:06;;;;;;;2.90;2.30;;;6.40;99.90;;;-141.84;43.12;18726.69;4980062;28;20227;-63
2024/01/29 08:49:35;;;;;;;3.37;2.40;;;6.40;99.90;;;-141.84;43.20;18724.66;4984121;28;20277;-64
2024/01/29 08:52:05;;;;;;;3.40;2.40;;;6.40;99.90;;;-141.84;42.97;18716.53;4967212;28;20290;-63
2024/01/29 08:54:33;;;;;;;3.13;2.30;;;6.50;99.90;;;-141.84;43.09;18724.66;4980177;28;20312;-64
2024/01/29 08:57:02;;;;;;;3.53;2.47;;;6.60;99.90;;;-141.84;42.65;18749.03;4985041;28;20290;-64
2024/01/29 08:59:31;;;;;;;4.17;2.30;;;6.70;99.90;;;-141.84;42.62;18744.97;4980702;28;20286;-64
2024/01/29 09:02:01;;;;;;;3.33;2.10;;;6.80;99.90;;;-141.84;42.40;18771.38;4986180;28;20303;-63
2024/01/29 09:04:29;;;;;;;4.10;2.60;;;6.90;99.90;;;-141.84;41.92;18828.28;4980645;28;20665;-63
2024/01/29 09:06:58;;;;;;;2.90;2.20;;;7.00;99.90;;;-141.84;41.83;18809.97;4979973;28;20224;-63
2024/01/29 09:09:26;;;;;;;4.73;2.90;;;7.00;99.90;;;-141.84;41.82;18777.47;4983129;28;20779;-63
2024/01/29 09:11:54;;;;;;;3.17;2.50;;;7.10;99.90;;;-141.84;40.93;18791.69;4982202;28;20227;-63
2024/01/29 09:14:24;;;;;;;2.67;2.30;;;7.20;99.90;;;-141.84;41.53;18807.94;4982759;28;20199;-63
2024/01/29 09:16:52;;;;;;;3.30;2.27;;;7.20;99.90;;;-141.84;41.28;18818.09;4978965;28;20238;-63
2024/01/29 09:19:23;;;;;;;2.93;2.37;;;7.20;99.90;;;-141.84;41.47;18834.38;4979273;28;20312;-64
2024/01/29 09:21:51;;;;;;;4.27;2.53;;;7.30;99.90;;;-141.84;40.36;18842.50;4979513;28;20267;-64
2024/01/29 09:24:20;;;;;;;3.43;2.13;;;7.50;99.90;;;-141.84;40.52;18901.41;4977323;28;20219;-63
2024/01/29 09:26:48;;;;;;;3.47;2.30;;;7.50;99.90;;;-141.84;41.13;18844.53;4981988;28;20297;-63
2024/01/29 09:29:17;;;;;;;2.97;2.10;;;7.50;99.90;;;-141.84;40.85;18862.81;4982861;28;20200;-64
2024/01/29 09:31:46;;;;;;;3.53;2.10;;;7.50;99.90;;;-141.84;40.04;18875.00;4986907;28;20228;-64
2024/01/29 09:34:14;;;;;;;3.03;2.10;;;7.70;99.90;;;-141.84;39.47;18887.19;4983620;28;20279;-66
2024/01/29 09:36:44;;;;;;;3.67;2.10;;;7.90;99.90;;;-141.84;39.19;18925.81;4979890;28;20228;-64
2024/01/29 09:39:12;;;;;;;2.40;2.17;;;8.20;99.90;;;-141.84;38.50;18968.47;4978293;28;20238;-63
2024/01/29 09:41:42;;;;;;;3.30;2.30;;;8.30;99.90;;;-141.84;38.72;18954.25;4982474;28;20218;-63
2024/01/29 09:44:10;;;;;;;9.40;2.20;;;8.40;99.90;;;-141.84;38.95;18956.28;4981929;28;20216;-64
2024/01/29 09:46:41;;;;;;;2.53;2.00;;;8.40;99.90;;;-141.84;39.37;18925.81;4979495;28;20781;-63
2024/01/29 09:49:10;;;;;;;3.10;2.20;;;8.30;99.90;;;-141.84;38.94;18962.38;4976235;28;20314;-64
2024/01/29 09:51:40;;;;;;;3.80;2.10;;;8.30;99.90;;;-141.84;39.30;18950.19;4977819;28;20271;-64
2024/01/29 09:54:11;;;;;;;2.97;2.17;;;8.30;99.90;;;-141.84;39.06;18962.38;4978429;28;20228;-64
2024/01/29 09:56:39;;;;;;;3.20;2.10;;;8.30;99.90;;;-141.84;39.13;18960.34;4977753;28;20217;-64
2024/01/29 09:59:08;;;;;;;5.70;2.17;;;8.40;99.90;;;-141.84;38.90;18942.06;4980198;28;20626;-63
2024/01/29 10:01:38;;;;;;;2.80;2.00;;;8.40;99.90;;;-141.84;38.63;19013.16;4978211;28;20717;-64
2024/01/29 10:04:06;;;;;;;4.07;2.60;;;8.50;99.90;;;-141.84;39.06;18948.16;4978639;28;20259;-64
2024/01/29 10:06:35;;;;;;;3.53;2.20;;;8.50;99.90;;;-141.84;38.94;18982.69;4986711;28;20520;-63
2024/01/29 10:09:04;;;;;;;3.30;2.03;;;8.50;99.90;;;-141.84;38.61;18954.25;4978523;28;20344;-64
2024/01/29 10:11:35;;;;;;;2.50;1.90;;;8.50;99.90;;;-141.84;38.39;18958.31;4978966;28;20228;-63
2024/01/29 10:14:03;;;;;;;3.00;2.20;;;8.60;99.90;;;-141.84;38.48;18958.31;4980835;28;20309;-64
2024/01/29 10:16:32;;;;;;;2.20;2.00;;;8.60;99.90;;;-141.84;38.94;18982.69;4981360;28;20219;-63
2024/01/29 10:19:02;;;;;;;3.23;2.00;;;8.60;99.90;;;-141.84;38.87;19015.19;4980612;28;20252;-63